Time;durP1;ratioP1;P1;durP2;ratioP2;P2;SDS_P1;SDS_P2;PMS_P1;PMS_P2;Temp;Humidity;BMP_temperature;BMP_pressure;BME280_temperature;BME280_humidity;BME280_pressure;Samples;Min_cycle;Max_cycle;Signal;HPM_P1;HPM_P2
2024/04/13 00:00:34;;;;;;;;;;;;;;;10.86;84.26;97724.00;5433117;26;19983;-70
2024/04/13 00:02:59;;;;;;;;;;;;;;;10.84;84.54;97730.44;5433008;26;19990;-70
2024/04/13 00:05:27;;;;;;;;;;;;;;;10.82;84.78;97730.63;5433127;26;19966;-70
2024/04/13 00:07:55;;;;;;;;;;;;;;;10.78;85.89;97729.38;5432985;26;20101;-70
2024/04/13 00:10:20;;;;;;;;;;;;;;;10.75;85.13;97725.31;5433048;26;19948;-70
2024/04/13 00:12:46;;;;;;;;;;;;;;;10.75;84.84;97727.13;5432980;26;19947;-70
2024/04/13 00:15:12;;;;;;;;;;;;;;;10.71;85.03;97725.88;5432342;26;19981;-70
2024/04/13 00:17:38;;;;;;;;;;;;;;;10.70;85.96;97722.44;5433006;26;19951;-75
2024/04/13 00:20:04;;;;;;;;;;;;;;;10.69;85.11;97727.88;5432901;26;19948;-71
2024/04/13 00:22:30;;;;;;;;;;;;;;;10.68;84.57;97718.38;5432813;26;19983;-71
2024/04/13 00:24:56;;;;;;;;;;;;;;;10.64;83.76;97710.06;5432729;26;19958;-70
2024/04/13 00:27:23;;;;;;;;;;;;;;;10.63;85.08;97721.56;5432710;26;20128;-70
2024/04/13 00:29:49;;;;;;;;;;;;;;;10.61;85.23;97720.94;5432686;26;19956;-70
2024/04/13 00:32:15;;;;;;;;;;;;;;;10.56;85.29;97720.66;5432669;26;19971;-71
2024/04/13 00:34:41;;;;;;;;;;;;;;;10.52;85.06;97716.78;5431829;26;19995;-70
2024/04/13 00:37:06;;;;;;;;;;;;;;;10.47;85.91;97706.88;5431549;26;19957;-72
2024/04/13 00:39:32;;;;;;;;;;;;;;;10.44;85.53;97703.81;5432428;26;19943;-73
2024/04/13 00:41:58;;;;;;;;;;;;;;;10.40;85.98;97711.25;5431874;26;19957;-73
2024/04/13 00:44:24;;;;;;;;;;;;;;;10.36;87.33;97705.53;5433822;26;20178;-73
2024/04/13 00:46:50;;;;;;;;;;;;;;;10.32;86.28;97699.03;5432483;26;19963;-72
2024/04/13 00:49:19;;;;;;;;;;;;;;;10.29;85.89;97701.19;5432467;26;19956;-73
2024/04/13 00:51:46;;;;;;;;;;;;;;;10.24;85.49;97698.31;5431946;26;19962;-73
2024/04/13 00:54:16;;;;;;;;;;;;;;;10.19;86.54;97696.25;5432427;26;20097;-67
2024/04/13 00:56:44;;;;;;;;;;;;;;;10.15;86.56;97702.84;5432351;26;20071;-71
2024/04/13 00:59:10;;;;;;;;;;;;;;;10.11;86.96;97697.16;5432410;26;19979;-71
2024/04/13 01:01:36;;;;;;;;;;;;;;;10.07;87.16;97689.84;5432089;26;20099;-70
2024/04/13 01:04:02;;;;;;;;;;;;;;;10.03;88.05;97689.41;5432172;26;20168;-71
2024/04/13 01:06:29;;;;;;;;;;;;;;;10.01;88.01;97685.34;5432290;26;19955;-70
2024/04/13 01:08:56;;;;;;;;;;;;;;;9.98;88.50;97691.78;5431545;26;19962;-70
2024/04/13 01:11:22;;;;;;;;;;;;;;;9.94;87.77;97686.06;5432128;26;19958;-70
2024/04/13 01:13:48;;;;;;;;;;;;;;;9.92;86.14;97682.00;5432150;26;20091;-67
2024/04/13 01:16:17;;;;;;;;;;;;;;;9.91;87.05;97690.84;5432066;26;19961;-67
2024/04/13 01:18:42;;;;;;;;;;;;;;;9.87;86.91;97684.34;5432106;26;20158;-67
2024/04/13 01:21:09;;;;;;;;;;;;;;;9.83;87.42;97689.16;5431951;26;20014;-67
2024/04/13 01:23:38;;;;;;;;;;;;;;;9.80;88.24;97692.13;5431243;26;19973;-67
2024/04/13 01:26:07;;;;;;;;;;;;;;;9.79;87.42;97687.09;5431992;26;19976;-67
2024/04/13 01:28:33;;;;;;;;;;;;;;;9.75;87.57;97690.06;5431986;26;19962;-66
2024/04/13 01:31:00;;;;;;;;;;;;;;;9.73;88.08;97686.81;5431872;26;19980;-71
2024/04/13 01:33:26;;;;;;;;;;;;;;;9.70;88.83;97687.19;5431850;26;19946;-70
2024/04/13 01:35:58;;;;;;;;;;;;;;;9.66;88.25;97683.31;5431760;26;19979;-71
2024/04/13 01:38:24;;;;;;;;;;;;;;;9.64;89.04;97687.09;5431800;26;20174;-71
2024/04/13 01:40:50;;;;;;;;;;;;;;;9.62;88.74;97691.72;5431665;26;19965;-70
2024/04/13 01:43:15;;;;;;;;;;;;;;;9.60;88.93;97699.75;5431756;26;19958;-71
2024/04/13 01:45:41;;;;;;;;;;;;;;;9.58;89.20;97698.31;5431157;26;19954;-71
2024/04/13 01:48:07;;;;;;;;;;;;;;;9.55;90.04;97702.06;5431466;26;20149;-71
2024/04/13 01:50:33;;;;;;;;;;;;;;;9.50;90.07;97705.25;5433371;26;19954;-71
2024/04/13 01:52:59;;;;;;;;;;;;;;;9.47;90.20;97694.31;5431557;26;19955;-71
2024/04/13 01:55:25;;;;;;;;;;;;;;;9.44;90.57;97694.69;5431587;26;19957;-71
2024/04/13 01:57:51;;;;;;;;;;;;;;;9.40;90.83;97694.22;5431490;26;19978;-71
2024/04/13 02:00:18;;;;;;;;;;;;;;;9.39;90.79;97702.28;5431228;26;19956;-71
2024/04/13 02:02:44;;;;;;;;;;;;;;;9.34;91.15;97695.75;5431323;26;19976;-71
2024/04/13 02:05:09;;;;;;;;;;;;;;;9.32;91.35;97696.91;5431435;26;19960;-71
2024/04/13 02:07:36;;;;;;;;;;;;;;;9.29;91.67;97702.50;5431320;26;19949;-72
2024/04/13 02:10:03;;;;;;;;;;;;;;;9.28;91.81;97696.47;5431307;26;19971;-70
2024/04/13 02:12:29;;;;;;;;;;;;;;;9.26;92.39;97697.63;5431322;26;19963;-70
2024/04/13 02:14:54;;;;;;;;;;;;;;;9.24;93.34;97700.44;5431247;26;19953;-70
2024/04/13 02:17:23;;;;;;;;;;;;;;;9.23;91.93;97698.00;5431093;26;20025;-72
2024/04/13 02:19:49;;;;;;;;;;;;;;;9.25;93.22;97719.56;5431089;26;19955;-71
2024/04/13 02:22:15;;;;;;;;;;;;;;;9.23;93.01;97705.84;5431209;26;19958;-70
2024/04/13 02:24:43;;;;;;;;;;;;;;;9.21;93.44;97702.59;5431119;26;19968;-72
2024/04/13 02:27:10;;;;;;;;;;;;;;;9.21;93.75;97705.22;5431172;26;19956;-75
2024/04/13 02:29:36;;;;;;;;;;;;;;;9.17;93.90;97694.28;5431008;26;19958;-74
2024/04/13 02:32:01;;;;;;;;;;;;;;;9.16;92.69;97694.47;5430935;26;19952;-74
2024/04/13 02:34:27;;;;;;;;;;;;;;;9.14;92.24;97690.22;5430959;26;19967;-74
2024/04/13 02:36:53;;;;;;;;;;;;;;;9.14;93.30;97699.88;5431055;26;20069;-75
2024/04/13 02:39:21;;;;;;;;;;;;;;;9.11;94.06;97713.31;5431195;26;19954;-75
2024/04/13 02:41:47;;;;;;;;;;;;;;;9.08;95.30;97695.34;5430780;26;19948;-74
2024/04/13 02:44:13;;;;;;;;;;;;;;;9.06;95.10;97699.94;5430333;26;19992;-70
2024/04/13 02:46:38;;;;;;;;;;;;;;;9.06;95.25;97702.56;5430664;26;19951;-75
2024/04/13 02:49:04;;;;;;;;;;;;;;;9.03;95.42;97705.50;5430649;26;19963;-75
2024/04/13 02:51:30;;;;;;;;;;;;;;;9.02;96.40;97702.09;5430596;26;19960;-75
2024/04/13 02:53:56;;;;;;;;;;;;;;;9.01;95.78;97702.25;5430673;26;19967;-74
2024/04/13 02:56:22;;;;;;;;;;;;;;;9.02;96.29;97707.31;5430865;26;19985;-75
2024/04/13 02:58:48;;;;;;;;;;;;;;;9.03;97.43;97708.13;5430549;26;19974;-75
2024/04/13 03:01:13;;;;;;;;;;;;;;;9.03;97.49;97698.50;5432537;26;19953;-74
2024/04/13 03:03:39;;;;;;;;;;;;;;;9.01;97.49;97694.41;5433241;26;19959;-72
2024/04/13 03:06:11;;;;;;;;;;;;;;;9.00;97.86;97693.59;5433859;26;19953;-67
2024/04/13 03:08:38;;;;;;;;;;;;;;;9.00;98.52;97698.03;5433921;26;19972;-67
2024/04/13 03:11:04;;;;;;;;;;;;;;;9.01;98.93;97704.88;5433765;26;19960;-66
2024/04/13 03:13:30;;;;;;;;;;;;;;;8.97;98.47;97696.59;5433889;26;19958;-66
2024/04/13 03:16:00;;;;;;;;;;;;;;;8.97;98.50;97693.16;5433696;26;19953;-67
2024/04/13 03:18:28;;;;;;;;;;;;;;;8.93;98.61;97698.75;5433059;26;19978;-67
2024/04/13 03:20:54;;;;;;;;;;;;;;;8.89;97.96;97696.66;5433578;26;19980;-79
2024/04/13 03:23:20;;;;;;;;;;;;;;;8.88;99.00;97697.63;5433770;26;20048;-69
2024/04/13 03:25:46;;;;;;;;;;;;;;;8.86;98.03;97697.81;5433076;26;19969;-70
2024/04/13 03:28:12;;;;;;;;;;;;;;;8.84;97.73;97691.13;5433605;26;19972;-69
2024/04/13 03:30:39;;;;;;;;;;;;;;;8.81;97.27;97688.88;5432850;26;19954;-69
2024/04/13 03:33:05;;;;;;;;;;;;;;;8.78;98.57;97694.44;5433463;26;19981;-70
2024/04/13 03:35:37;;;;;;;;;;;;;;;8.76;99.83;97705.09;5433673;26;20072;-69
2024/04/13 03:38:04;;;;;;;;;;;;;;;8.73;99.77;97693.19;5433437;26;19959;-79
2024/04/13 03:40:30;;;;;;;;;;;;;;;8.70;99.76;97693.53;5433359;26;19985;-69
2024/04/13 03:42:56;;;;;;;;;;;;;;;8.68;98.91;97686.84;5433306;26;19986;-72
2024/04/13 03:45:21;;;;;;;;;;;;;;;8.65;98.94;97693.25;5433356;26;20192;-72
2024/04/13 03:47:47;;;;;;;;;;;;;;;8.63;99.65;97689.16;5433317;26;20046;-72
2024/04/13 03:50:14;;;;;;;;;;;;;;;8.61;99.89;97699.81;5433315;26;19974;-72
2024/04/13 03:52:41;;;;;;;;;;;;;;;8.60;100.00;97702.59;5433262;26;20022;-73
2024/04/13 03:55:07;;;;;;;;;;;;;;;8.58;100.00;97694.91;5433284;26;19955;-72
2024/04/13 03:57:33;;;;;;;;;;;;;;;8.57;100.00;97693.31;5433202;26;20020;-67
2024/04/13 03:59:59;;;;;;;;;;;;;;;8.56;100.00;97694.28;5433005;26;19979;-73
2024/04/13 04:02:25;;;;;;;;;;;;;;;8.54;100.00;97693.63;5432452;26;19957;-72
2024/04/13 04:04:50;;;;;;;;;;;;;;;8.53;100.00;97694.63;5433168;26;19970;-72
2024/04/13 04:07:16;;;;;;;;;;;;;;;8.51;100.00;97688.75;5433298;26;19975;-72
2024/04/13 04:09:42;;;;;;;;;;;;;;;8.50;100.00;97700.19;5433076;26;19957;-74
2024/04/13 04:12:09;;;;;;;;;;;;;;;8.47;100.00;97684.88;5431489;26;19974;-73
2024/04/13 04:14:35;;;;;;;;;;;;;;;8.44;100.00;97688.66;5433019;26;19967;-72
2024/04/13 04:17:02;;;;;;;;;;;;;;;8.41;100.00;97694.22;5432544;26;19960;-74
2024/04/13 04:19:28;;;;;;;;;;;;;;;8.39;100.00;97698.75;5432923;26;19972;-75
2024/04/13 04:21:54;;;;;;;;;;;;;;;8.37;100.00;97699.94;5432793;26;20175;-76
2024/04/13 04:24:22;;;;;;;;;;;;;;;8.37;100.00;97684.25;5432875;26;19952;-75
2024/04/13 04:26:49;;;;;;;;;;;;;;;8.37;100.00;97681.63;5432746;26;19962;-76
2024/04/13 04:29:14;;;;;;;;;;;;;;;8.33;100.00;97678.53;5432800;26;19949;-76
2024/04/13 04:31:41;;;;;;;;;;;;;;;8.31;100.00;97688.34;5432780;26;19970;-75
2024/04/13 04:34:07;;;;;;;;;;;;;;;8.31;100.00;97688.34;5432685;26;20164;-67
2024/04/13 04:36:33;;;;;;;;;;;;;;;8.30;100.00;97690.16;5431856;26;19956;-71
2024/04/13 04:38:59;;;;;;;;;;;;;;;8.31;100.00;97685.75;5432647;26;19987;-71
2024/04/13 04:41:28;;;;;;;;;;;;;;;8.33;100.00;97689.00;5432384;26;19998;-71
2024/04/13 04:43:54;;;;;;;;;;;;;;;8.33;100.00;97687.19;5432539;26;20186;-71
2024/04/13 04:46:21;;;;;;;;;;;;;;;8.34;100.00;97688.84;5432553;26;20082;-71
2024/04/13 04:48:48;;;;;;;;;;;;;;;8.35;100.00;97684.41;5432408;26;19964;-71
2024/04/13 04:51:13;;;;;;;;;;;;;;;8.36;100.00;97691.28;5432379;26;19969;-71
2024/04/13 04:53:39;;;;;;;;;;;;;;;8.37;100.00;97692.09;5432412;26;19959;-69
2024/04/13 04:56:05;;;;;;;;;;;;;;;8.38;100.00;97685.84;5432334;26;19955;-70
2024/04/13 04:58:31;;;;;;;;;;;;;;;8.38;100.00;97696.31;5432359;26;19978;-70
2024/04/13 05:00:57;;;;;;;;;;;;;;;8.39;100.00;97695.34;5432159;26;20106;-70
2024/04/13 05:03:24;;;;;;;;;;;;;;;8.40;100.00;97684.72;5432268;26;20066;-70
2024/04/13 05:05:50;;;;;;;;;;;;;;;8.42;100.00;97687.16;5432183;26;19978;-70
2024/04/13 05:08:16;;;;;;;;;;;;;;;8.42;100.00;97695.00;5432299;26;19956;-70
2024/04/13 05:10:42;;;;;;;;;;;;;;;8.44;100.00;97698.28;5432200;26;19969;-71
2024/04/13 05:13:08;;;;;;;;;;;;;;;8.49;100.00;97703.81;5432432;26;19979;-75
2024/04/13 05:15:35;;;;;;;;;;;;;;;8.66;100.00;97700.09;5432143;26;20149;-75
2024/04/13 05:18:02;;;;;;;;;;;;;;;8.70;100.00;97696.13;5432016;26;20099;-76
2024/04/13 05:20:28;;;;;;;;;;;;;;;8.70;99.95;97698.75;5432009;26;19995;-76
2024/04/13 05:22:54;;;;;;;;;;;;;;;8.64;99.25;97689.00;5431369;26;19945;-76
2024/04/13 05:25:20;;;;;;;;;;;;;;;8.61;99.33;97691.97;5431950;26;19957;-75
2024/04/13 05:27:46;;;;;;;;;;;;;;;8.62;100.00;97695.38;5431991;26;20014;-76
2024/04/13 05:30:12;;;;;;;;;;;;;;;8.63;99.46;97700.44;5432035;26;19969;-66
2024/04/13 05:32:38;;;;;;;;;;;;;;;8.68;100.00;97700.72;5432153;26;19974;-71
2024/04/13 05:35:04;;;;;;;;;;;;;;;8.88;100.00;97715.94;5431808;26;19951;-71
2024/04/13 05:37:29;;;;;;;;;;;;;;;9.39;100.00;97708.31;5431787;26;19948;-71
2024/04/13 05:39:55;;;;;;;;;;;;;;;10.15;98.08;97697.63;5431720;26;19960;-71
2024/04/13 05:42:21;;;;;;;;;;;;;;;10.88;94.07;97681.84;5431698;26;19978;-71
2024/04/13 05:44:47;;;;;;;;;;;;;;;11.56;90.05;97659.25;5431830;26;19988;-72
2024/04/13 05:47:13;;;;;;;;;;;;;;;12.24;86.65;97647.22;5431710;26;19974;-80
2024/04/13 05:49:38;;;;;;;;;;;;;;;12.85;82.30;97618.16;5431753;26;19968;-70
2024/04/13 05:52:04;;;;;;;;;;;;;;;13.33;79.60;97609.19;5430863;26;20017;-70
2024/04/13 05:54:30;;;;;;;;;;;;;;;13.76;77.00;97606.03;5431627;26;19975;-69
2024/04/13 05:56:57;;;;;;;;;;;;;;;14.00;74.47;97602.63;5431495;26;20153;-69
2024/04/13 05:59:22;;;;;;;;;;;;;;;14.30;73.20;97609.16;5431444;26;19951;-70
2024/04/13 06:01:48;;;;;;;;;;;;;;;14.60;72.07;97607.56;5431405;26;20022;-70
2024/04/13 06:04:14;;;;;;;;;;;;;;;15.02;70.06;97605.19;5431517;26;19993;-69
2024/04/13 06:06:41;;;;;;;;;;;;;;;15.39;67.84;97599.97;5431495;26;19978;-71
2024/04/13 06:09:07;;;;;;;;;;;;;;;15.55;66.50;97593.25;5431355;26;19955;-71
2024/04/13 06:11:33;;;;;;;;;;;;;;;15.63;66.03;97586.88;5431385;26;19975;-70
2024/04/13 06:13:59;;;;;;;;;;;;;;;15.72;65.03;97588.19;5431389;26;19981;-70
2024/04/13 06:16:25;;;;;;;;;;;;;;;15.60;64.74;97596.06;5431326;26;19973;-71
2024/04/13 06:18:52;;;;;;;;;;;;;;;15.34;63.15;97599.00;5431317;26;19976;-70
2024/04/13 06:21:18;;;;;;;;;;;;;;;15.13;65.82;97603.66;5431163;26;20090;-70
2024/04/13 06:23:44;;;;;;;;;;;;;;;15.10;66.21;97612.03;5431163;26;19956;-70
2024/04/13 06:26:09;;;;;;;;;;;;;;;15.28;68.27;97623.66;5431289;26;20048;-70
2024/04/13 06:28:35;;;;;;;;;;;;;;;15.55;66.91;97619.69;5431144;26;19988;-70
2024/04/13 06:31:01;;;;;;;;;;;;;;;15.77;64.72;97616.63;5431009;26;19988;-69
2024/04/13 06:33:27;;;;;;;;;;;;;;;15.89;63.60;97603.47;5431102;26;20156;-70
2024/04/13 06:35:54;;;;;;;;;;;;;;;15.97;64.94;97616.38;5429678;26;19960;-70
2024/04/13 06:38:23;;;;;;;;;;;;;;;16.00;63.54;97613.28;5431207;26;19981;-70
2024/04/13 06:40:50;;;;;;;;;;;;;;;15.78;64.22;97612.97;5430242;26;19982;-70
2024/04/13 06:43:15;;;;;;;;;;;;;;;15.74;65.53;97628.47;5430919;26;19973;-71
2024/04/13 06:45:41;;;;;;;;;;;;;;;15.86;65.26;97627.72;5430911;26;19992;-79
2024/04/13 06:48:07;;;;;;;;;;;;;;;15.95;64.97;97623.75;5430761;26;20032;-79
2024/04/13 06:50:33;;;;;;;;;;;;;;;16.01;66.00;97633.44;5430759;26;19962;-79
2024/04/13 06:52:59;;;;;;;;;;;;;;;16.15;64.58;97621.66;5430682;26;19965;-79
2024/04/13 06:55:25;;;;;;;;;;;;;;;16.32;64.44;97621.03;5430689;26;19977;-78
2024/04/13 06:57:51;;;;;;;;;;;;;;;16.46;63.09;97611.81;5430633;26;20104;-79
2024/04/13 07:00:17;;;;;;;;;;;;;;;16.52;63.31;97616.22;5430567;26;19952;-77
2024/04/13 07:02:47;;;;;;;;;;;;;;;16.63;62.29;97617.28;5430619;26;19986;-78
2024/04/13 07:05:13;;;;;;;;;;;;;;;16.71;63.03;97614.28;5430500;26;19950;-75
2024/04/13 07:07:39;;;;;;;;;;;;;;;16.80;61.38;97615.63;5429623;26;20159;-75
2024/04/13 07:10:05;;;;;;;;;;;;;;;16.78;61.11;97611.56;5430358;26;19955;-75
2024/04/13 07:12:31;;;;;;;;;;;;;;;16.83;62.10;97617.78;5430401;26;20167;-75
2024/04/13 07:14:58;;;;;;;;;;;;;;;17.03;63.89;97628.09;5430341;26;19957;-75
2024/04/13 07:17:24;;;;;;;;;;;;;;;17.28;63.82;97619.06;5430254;26;20159;-75
2024/04/13 07:19:50;;;;;;;;;;;;;;;17.50;61.94;97610.53;5430176;26;19958;-71
2024/04/13 07:22:16;;;;;;;;;;;;;;;17.45;60.35;97601.44;5428914;26;20147;-74
2024/04/13 07:24:42;;;;;;;;;;;;;;;17.44;61.88;97614.91;5430419;26;19978;-74
2024/04/13 07:27:08;;;;;;;;;;;;;;;17.60;62.75;97621.34;5430104;26;19971;-74
2024/04/13 07:29:34;;;;;;;;;;;;;;;17.74;60.06;97616.56;5430102;26;20159;-74
2024/04/13 07:31:59;;;;;;;;;;;;;;;17.71;58.26;97606.44;5430022;26;19949;-74
2024/04/13 07:34:25;;;;;;;;;;;;;;;17.63;59.46;97618.22;5430003;26;20086;-74
2024/04/13 07:36:51;;;;;;;;;;;;;;;17.65;58.43;97613.50;5429878;26;20161;-75
2024/04/13 07:39:17;;;;;;;;;;;;;;;17.65;59.96;97619.59;5429894;26;19977;-70
2024/04/13 07:41:43;;;;;;;;;;;;;;;17.72;61.19;97624.75;5429811;26;19983;-71
2024/04/13 07:44:09;;;;;;;;;;;;;;;17.83;60.90;97618.66;5429422;26;19976;-70
2024/04/13 07:46:35;;;;;;;;;;;;;;;18.03;60.04;97623.53;5431097;26;19975;-71
2024/04/13 07:49:01;;;;;;;;;;;;;;;18.08;58.08;97614.06;5433639;26;19950;-70
2024/04/13 07:51:27;;;;;;;;;;;;;;;18.08;57.22;97608.75;5433333;26;19959;-70
2024/04/13 07:53:52;;;;;;;;;;;;;;;18.23;59.66;97622.34;5433302;26;19982;-70
2024/04/13 07:56:18;;;;;;;;;;;;;;;18.36;58.36;97616.72;5434359;26;19975;-67
2024/04/13 07:58:45;;;;;;;;;;;;;;;18.52;56.61;97615.16;5433259;26;19990;-70
2024/04/13 08:01:11;;;;;;;;;;;;;;;18.68;60.46;97624.16;5433057;26;19955;-70
2024/04/13 08:03:37;;;;;;;;;;;;;;;18.87;58.13;97606.16;5433217;26;19968;-70
2024/04/13 08:06:03;;;;;;;;;;;;;;;18.98;56.56;97601.78;5433143;26;20020;-70
2024/04/13 08:08:28;;;;;;;;;;;;;;;19.22;58.56;97613.06;5433044;26;19949;-71
2024/04/13 08:10:54;;;;;;;;;;;;;;;19.42;56.67;97601.88;5432961;26;19974;-70
2024/04/13 08:13:20;;;;;;;;;;;;;;;19.48;54.98;97587.59;5433030;26;20185;-70
2024/04/13 08:15:46;;;;;;;;;;;;;;;19.55;53.99;97595.38;5432865;26;19979;-67
2024/04/13 08:18:12;;;;;;;;;;;;;;;19.64;56.23;97597.38;5432930;26;19963;-78
2024/04/13 08:20:39;;;;;;;;;;;;;;;19.65;54.32;97590.19;5432099;26;19955;-78
2024/04/13 08:23:05;;;;;;;;;;;;;;;19.75;53.78;97594.88;5432685;26;19987;-78
2024/04/13 08:25:31;;;;;;;;;;;;;;;19.63;54.15;97590.44;5432795;26;20181;-78
2024/04/13 08:27:57;;;;;;;;;;;;;;;19.59;56.05;97594.66;5432675;26;19953;-78
2024/04/13 08:30:24;;;;;;;;;;;;;;;19.52;55.71;97587.91;5432783;26;19950;-78
2024/04/13 08:32:49;;;;;;;;;;;;;;;19.44;53.67;97587.28;5432110;26;19970;-78
2024/04/13 08:35:15;;;;;;;;;;;;;;;19.67;55.61;97588.06;5432748;26;20036;-70
2024/04/13 08:37:41;;;;;;;;;;;;;;;19.70;54.70;97586.78;5432644;26;19956;-74
2024/04/13 08:40:10;;;;;;;;;;;;;;;19.65;50.86;97577.69;5432602;26;19974;-73
2024/04/13 08:42:39;;;;;;;;;;;;;;;19.77;51.06;97572.25;5432472;26;19958;-74
2024/04/13 08:45:09;;;;;;;;;;;;;;;19.96;52.55;97578.06;5431925;26;19982;-74
2024/04/13 08:47:36;;;;;;;;;;;;;;;19.99;53.64;97582.06;5432479;26;19966;-73
2024/04/13 08:50:02;;;;;;;;;;;;;;;20.21;53.28;97576.72;5432552;26;20096;-74
2024/04/13 08:52:31;;;;;;;;;;;;;;;20.44;53.33;97573.72;5432535;26;20076;-67
2024/04/13 08:54:57;;;;;;;;;;;;;;;20.56;51.27;97572.75;5432464;26;19973;-72
2024/04/13 08:57:24;;;;;;;;;;;;;;;20.64;50.39;97561.63;5431452;26;19953;-71
2024/04/13 08:59:51;;;;;;;;;;;;;;;20.63;50.86;97560.84;5431852;26;19969;-72
2024/04/13 09:02:21;;;;;;;;;;;;;;;20.66;51.31;97564.84;5431835;26;19953;-71
2024/04/13 09:04:49;;;;;;;;;;;;;;;20.74;51.17;97568.91;5431604;26;19956;-71
2024/04/13 09:07:15;;;;;;;;;;;;;;;20.79;51.44;97564.44;5432152;26;19988;-71
2024/04/13 09:09:41;;;;;;;;;;;;;;;20.82;52.61;97566.56;5432235;26;19971;-70
2024/04/13 09:12:07;;;;;;;;;;;;;;;21.03;53.43;97572.84;5432110;26;19990;-70
2024/04/13 09:14:33;;;;;;;;;;;;;;;21.15;52.32;97564.66;5432176;26;19973;-70
2024/04/13 09:16:59;;;;;;;;;;;;;;;21.16;50.21;97560.09;5432076;26;19955;-70
2024/04/13 09:19:25;;;;;;;;;;;;;;;21.12;50.33;97567.03;5431996;26;19956;-71
2024/04/13 09:21:51;;;;;;;;;;;;;;;21.25;49.72;97561.22;5431762;26;19999;-71
2024/04/13 09:24:16;;;;;;;;;;;;;;;21.42;49.88;97566.44;5431242;26;19980;-72
2024/04/13 09:26:44;;;;;;;;;;;;;;;21.49;44.38;97562.44;5431939;26;19958;-70
2024/04/13 09:29:12;;;;;;;;;;;;;;;21.61;46.17;97558.75;5431770;26;19948;-70
2024/04/13 09:31:39;;;;;;;;;;;;;;;21.74;44.95;97557.47;5431855;26;20094;-74
2024/04/13 09:34:05;;;;;;;;;;;;;;;21.68;44.56;97552.09;5431592;26;19945;-74
2024/04/13 09:36:31;;;;;;;;;;;;;;;21.77;45.31;97548.91;5431842;26;19965;-74
2024/04/13 09:38:57;;;;;;;;;;;;;;;21.86;46.37;97550.03;5431748;26;20227;-74
2024/04/13 09:41:24;;;;;;;;;;;;;;;21.99;47.25;97546.84;5431535;26;19985;-74
2024/04/13 09:43:51;;;;;;;;;;;;;;;22.24;45.54;97542.63;5431588;26;19955;-75
2024/04/13 09:46:17;;;;;;;;;;;;;;;22.35;44.89;97536.22;5431555;26;19949;-72
2024/04/13 09:48:43;;;;;;;;;;;;;;;22.46;45.01;97527.13;5431666;26;20091;-67
2024/04/13 09:51:09;;;;;;;;;;;;;;;22.47;43.50;97527.94;5431459;26;19978;-74
2024/04/13 09:53:35;;;;;;;;;;;;;;;22.52;42.13;97527.13;5431520;26;20032;-74
2024/04/13 09:56:02;;;;;;;;;;;;;;;22.60;41.84;97526.59;5431325;26;20190;-74
2024/04/13 09:58:28;;;;;;;;;;;;;;;22.62;39.00;97529.78;5431664;26;19957;-75
2024/04/13 10:00:54;;;;;;;;;;;;;;;22.76;42.52;97530.03;5431553;26;19960;-74
2024/04/13 10:03:20;;;;;;;;;;;;;;;23.01;41.11;97513.94;5431200;26;20022;-75
2024/04/13 10:05:46;;;;;;;;;;;;;;;23.20;40.48;97514.16;5431400;26;19957;-71
2024/04/13 10:08:12;;;;;;;;;;;;;;;23.27;38.12;97511.22;5431322;26;19962;-74
2024/04/13 10:10:43;;;;;;;;;;;;;;;23.04;39.72;97529.47;5431405;26;20166;-74
2024/04/13 10:13:10;;;;;;;;;;;;;;;23.06;40.09;97513.16;5431103;26;19953;-74
2024/04/13 10:15:36;;;;;;;;;;;;;;;23.09;40.51;97515.28;5431185;26;19950;-75
2024/04/13 10:18:04;;;;;;;;;;;;;;;23.09;41.65;97512.59;5431001;26;19956;-75
2024/04/13 10:20:30;;;;;;;;;;;;;;;23.23;40.68;97510.94;5430927;26;19954;-74
2024/04/13 10:22:56;;;;;;;;;;;;;;;23.44;41.14;97510.88;5430989;26;20067;-70
2024/04/13 10:25:26;;;;;;;;;;;;;;;23.71;39.85;97503.22;5431078;26;19977;-75
2024/04/13 10:28:02;;;;;;;;;;;;;;;23.90;41.70;97503.41;5431039;26;20084;-67
2024/04/13 10:30:28;;;;;;;;;;;;;;;24.07;38.17;97492.31;5431039;26;19957;-67
2024/04/13 10:32:54;;;;;;;;;;;;;;;24.18;40.24;97495.69;5431151;26;19953;-67
2024/04/13 10:35:26;;;;;;;;;;;;;;;24.15;40.54;97495.44;5431008;26;19951;-66
2024/04/13 10:37:52;;;;;;;;;;;;;;;24.10;39.54;97490.94;5430924;26;20079;-67
2024/04/13 10:40:22;;;;;;;;;;;;;;;24.04;39.79;97492.88;5430829;26;20074;-67
2024/04/13 10:42:48;;;;;;;;;;;;;;;24.03;40.00;97488.59;5430857;26;19986;-75
2024/04/13 10:45:16;;;;;;;;;;;;;;;24.26;38.31;97479.03;5430908;26;20018;-70
2024/04/13 10:47:42;;;;;;;;;;;;;;;24.51;40.39;97485.28;5430743;26;19976;-70
2024/04/13 10:50:09;;;;;;;;;;;;;;;24.70;38.25;97478.09;5430700;26;19972;-70
2024/04/13 10:52:35;;;;;;;;;;;;;;;24.81;40.89;97478.00;5430745;26;19960;-70
2024/04/13 10:55:00;;;;;;;;;;;;;;;24.95;38.09;97465.50;5430726;26;19967;-70
2024/04/13 10:57:26;;;;;;;;;;;;;;;24.84;37.90;97456.78;5430657;26;19944;-70
2024/04/13 10:59:52;;;;;;;;;;;;;;;24.69;39.69;97464.97;5430465;26;20008;-75
2024/04/13 11:02:18;;;;;;;;;;;;;;;24.63;38.09;97460.75;5430511;26;19992;-74
2024/04/13 11:04:44;;;;;;;;;;;;;;;24.76;40.52;97460.09;5430750;26;20045;-72
2024/04/13 11:07:12;;;;;;;;;;;;;;;25.05;37.77;97456.53;5430463;26;20087;-70
2024/04/13 11:09:38;;;;;;;;;;;;;;;25.23;38.12;97455.78;5430356;26;19980;-69
2024/04/13 11:12:11;;;;;;;;;;;;;;;25.33;38.38;97459.44;5430386;26;19984;-70
2024/04/13 11:14:38;;;;;;;;;;;;;;;25.24;37.02;97454.72;5430438;26;19968;-70
2024/04/13 11:17:04;;;;;;;;;;;;;;;25.24;36.72;97456.59;5429637;26;19953;-70
2024/04/13 11:19:30;;;;;;;;;;;;;;;25.37;37.30;97450.53;5430278;26;19949;-70
2024/04/13 11:21:57;;;;;;;;;;;;;;;25.53;37.73;97456.47;5432031;26;19970;-67
2024/04/13 11:24:23;;;;;;;;;;;;;;;25.64;37.16;97447.19;5433775;26;19970;-68
2024/04/13 11:26:50;;;;;;;;;;;;;;;25.58;37.47;97440.28;5433763;26;19962;-66
2024/04/13 11:29:17;;;;;;;;;;;;;;;25.53;35.52;97440.34;5433729;26;19946;-67
2024/04/13 11:31:43;;;;;;;;;;;;;;;25.33;36.76;97435.28;5433717;26;19955;-67
2024/04/13 11:34:09;;;;;;;;;;;;;;;25.07;35.92;97433.69;5433623;26;20182;-67
2024/04/13 11:36:35;;;;;;;;;;;;;;;24.99;38.49;97437.00;5433583;26;20153;-77
2024/04/13 11:39:02;;;;;;;;;;;;;;;25.07;37.16;97422.13;5432764;26;20057;-70
2024/04/13 11:41:28;;;;;;;;;;;;;;;25.20;39.15;97426.00;5433498;26;19951;-70
2024/04/13 11:43:55;;;;;;;;;;;;;;;25.36;36.98;97416.69;5432868;26;19953;-70
2024/04/13 11:46:21;;;;;;;;;;;;;;;25.47;36.54;97417.34;5432926;26;19952;-69
2024/04/13 11:48:48;;;;;;;;;;;;;;;25.46;35.83;97410.38;5433411;26;20096;-70
2024/04/13 11:51:14;;;;;;;;;;;;;;;25.62;35.97;97403.69;5433259;26;19977;-71
2024/04/13 11:53:40;;;;;;;;;;;;;;;25.69;35.48;97408.69;5433299;26;19974;-70
2024/04/13 11:56:09;;;;;;;;;;;;;;;25.66;35.40;97402.03;5433392;26;19978;-70
2024/04/13 11:58:35;;;;;;;;;;;;;;;25.69;38.51;97400.66;5433353;26;20084;-70
2024/04/13 12:01:02;;;;;;;;;;;;;;;25.83;34.46;97395.31;5433163;26;19942;-70
2024/04/13 12:03:28;;;;;;;;;;;;;;;25.92;34.15;97388.22;5433127;26;19954;-70
2024/04/13 12:05:53;;;;;;;;;;;;;;;26.03;36.18;97384.25;5432531;26;19954;-70
2024/04/13 12:08:19;;;;;;;;;;;;;;;26.09;35.00;97385.75;5433168;26;19989;-70
2024/04/13 12:10:45;;;;;;;;;;;;;;;26.16;35.01;97377.31;5433132;26;19998;-70
2024/04/13 12:13:11;;;;;;;;;;;;;;;26.27;34.86;97376.03;5433111;26;19969;-70
2024/04/13 12:15:37;;;;;;;;;;;;;;;26.45;34.74;97379.72;5432375;26;19963;-70
2024/04/13 12:18:03;;;;;;;;;;;;;;;26.66;33.96;97369.41;5433008;26;19965;-71
2024/04/13 12:20:28;;;;;;;;;;;;;;;26.74;33.34;97373.28;5432319;26;19954;-70
2024/04/13 12:22:54;;;;;;;;;;;;;;;26.51;31.69;97364.31;5432043;26;19990;-70
2024/04/13 12:25:20;;;;;;;;;;;;;;;26.56;32.79;97374.16;5432963;26;19965;-70
2024/04/13 12:27:46;;;;;;;;;;;;;;;26.72;33.82;97362.03;5432960;26;19957;-70
2024/04/13 12:30:12;;;;;;;;;;;;;;;26.89;32.61;97367.59;5432844;26;20183;-70
2024/04/13 12:32:38;;;;;;;;;;;;;;;26.90;33.04;97354.94;5431110;26;19949;-70
2024/04/13 12:35:07;;;;;;;;;;;;;;;26.86;32.38;97351.28;5432658;26;20091;-77
2024/04/13 12:37:35;;;;;;;;;;;;;;;26.89;32.56;97347.97;5431074;26;19953;-77
2024/04/13 12:40:01;;;;;;;;;;;;;;;26.90;32.84;97344.19;5432646;26;19948;-77
2024/04/13 12:42:28;;;;;;;;;;;;;;;26.83;32.70;97341.09;5432625;26;19988;-77